Tor Futura — OZZE2 — position and weather

sailwx.info

Track history (hours):
 
Tides and Currents Weather Stations Pressure Air Temp Water Temp Dewpoint Dewpoint Depression Visibility Wind Speed Wind Dir Waves Ship Positions

Tor Futura

Last reported at 2016-May-02 11:11 UTC. Time now 2016-May-03 06:45 UTC.
Position N 43°19' E 005°22'.

Length 183.1 m; beam 25.2 m; draft 7.8 m.

Type: Ship. MMSI: 219927000.

Date/timePositionNaut miles runAvg speedWind from/ knotsBaromVisibWave heightAir tempDewpointWater temp
2016-May-02 11:11N 43°19' E 005°22'1 1.7
2016-May-02 10:32N 43°20' E 005°21'9 9.2
2016-May-02 09:33N 43°15' E 005°10'  
2016-Apr-28 17:32N 38°38' E 008°37'2813.6
2016-Apr-28 15:31N 38°59' E 008°15'28714.2
2016-Apr-27 19:18N 43°10' E 005°10'912.4
2016-Apr-27 18:33N 43°19' E 005°14'5 5.2
2016-Apr-27 17:33N 43°19' E 005°22'0 0.0
2016-Apr-27 16:30N 43°19' E 005°22'3 0.2
2016-Apr-27 05:33N 43°21' E 005°19'1211.8
2016-Apr-27 04:34N 43°11' E 005°11'31214.8
2016-Apr-26 07:29N 38°41' E 008°37'23 0.5
2016-Apr-24 06:08N 38°58' E 008°17'27816.8
2016-Apr-23 13:33N 43°01' E 005°18'1616.5
2016-Apr-23 12:33N 43°16' E 005°11'8 8.0
2016-Apr-23 11:31N 43°19' E 005°22'0 0.0
2016-Apr-23 10:10N 43°19' E 005°22'0 0.0
2016-Apr-23 09:28N 43°19' E 005°22'0 0.0
2016-Apr-23 08:13N 43°19' E 005°22'0 0.0
2016-Apr-23 07:16N 43°19' E 005°22'0 0.0
2016-Apr-23 06:04N 43°19' E 005°22'0 0.0
2016-Apr-23 05:28N 43°19' E 005°22'0 0.1
2016-Apr-23 04:33N 43°19' E 005°21'7 7.0
2016-Apr-23 03:33N 43°17' E 005°12'1515.5
2016-Apr-23 02:33N 43°02' E 005°18'  
Track history (hours):
 
Tides and Currents Weather Stations Pressure Air Temp Water Temp Dewpoint Dewpoint Depression Visibility Wind Speed Wind Dir Waves Ship Positions

Tor Futura

Last reported at 2016-May-02 11:11 UTC. Time now 2016-May-03 06:45 UTC.
Position N 43°19' E 005°22'.

Length 183.1 m; beam 25.2 m; draft 7.8 m.

Type: Ship. MMSI: 219927000.

Date/timePositionNaut miles runAvg speedWind from/ knotsBaromVisibWave heightAir tempDewpointWater temp
2016-May-02 11:11N 43°19' E 005°22'1 1.7
2016-May-02 10:32N 43°20' E 005°21'9 9.2
2016-May-02 09:33N 43°15' E 005°10'  
2016-Apr-28 17:32N 38°38' E 008°37'2813.6
2016-Apr-28 15:31N 38°59' E 008°15'28714.2
2016-Apr-27 19:18N 43°10' E 005°10'912.4
2016-Apr-27 18:33N 43°19' E 005°14'5 5.2
2016-Apr-27 17:33N 43°19' E 005°22'0 0.0
2016-Apr-27 16:30N 43°19' E 005°22'3 0.2
2016-Apr-27 05:33N 43°21' E 005°19'1211.8
2016-Apr-27 04:34N 43°11' E 005°11'31214.8
2016-Apr-26 07:29N 38°41' E 008°37'23 0.5
2016-Apr-24 06:08N 38°58' E 008°17'27816.8
2016-Apr-23 13:33N 43°01' E 005°18'1616.5
2016-Apr-23 12:33N 43°16' E 005°11'8 8.0
2016-Apr-23 11:31N 43°19' E 005°22'0 0.0
2016-Apr-23 10:10N 43°19' E 005°22'0 0.0
2016-Apr-23 09:28N 43°19' E 005°22'0 0.0
2016-Apr-23 08:13N 43°19' E 005°22'0 0.0
2016-Apr-23 07:16N 43°19' E 005°22'0 0.0
2016-Apr-23 06:04N 43°19' E 005°22'0 0.0
2016-Apr-23 05:28N 43°19' E 005°22'0 0.1
2016-Apr-23 04:33N 43°19' E 005°21'7 7.0
2016-Apr-23 03:33N 43°17' E 005°12'1515.5
2016-Apr-23 02:33N 43°02' E 005°18'  

Dump ship's entire track history